Allen's Hourly Summary for Thursday, July 5, 2018
Hour Temp
(f)
RH
(%)
Solar Rad.
(MJ/m2)
Rainfall
(in)
Wind
(mph)
7/5/2018 12:00 AM 79 65 0 0 4.12
7/5/2018 1:00 AM 76 71 0 0 1.11
7/5/2018 2:00 AM 74 73 0 0 0.02
7/5/2018 3:00 AM 74 75 0 0 0.12
7/5/2018 4:00 AM 74 77 0 0 0.01
7/5/2018 5:00 AM 73 79 0 0 0.04
7/5/2018 6:00 AM 72 81 0 0 0
7/5/2018 7:00 AM 72 83 0.03 0 0.01
7/5/2018 8:00 AM 74 73 0.37 0 0.29
7/5/2018 9:00 AM 79 65 1.14 0 1
7/5/2018 10:00 AM 81 60 1.88 0 1.51
7/5/2018 11:00 AM 84 54 2.65 0 1.3
7/5/2018 12:00 PM 86 50 2.98 0 2.14
7/5/2018 1:00 PM 88 47 2.95 0 2.51
7/5/2018 2:00 PM 90 40 3.14 0 1.95
7/5/2018 3:00 PM 92 39 2.89 0 2.53
7/5/2018 4:00 PM 93 37 2.72 0 2.94
7/5/2018 5:00 PM 94 37 2.39 0 2.97
7/5/2018 6:00 PM 94 34 1.83 0 2.62
7/5/2018 7:00 PM 91 39 0.5 0 3.75
7/5/2018 8:00 PM 88 43 0.34 0 4.6
7/5/2018 9:00 PM 86 53 0.06 0 3.13
7/5/2018 10:00 PM 84 59 0 0 3.21
7/5/2018 11:00 PM 83 59 0 0 2.64
Data Summary 82 58 25.87 0.00 1.86